createdAt,value
2018-05-26T00:00:00.674Z,17.12
2018-05-26T00:02:28.118Z,17.09
2018-05-26T00:04:55.583Z,17.07
2018-05-26T00:07:23.023Z,17.06
2018-05-26T00:09:50.509Z,17.02
2018-05-26T00:12:17.959Z,17.00
2018-05-26T00:14:45.421Z,17.03
2018-05-26T00:17:12.875Z,17.05
2018-05-26T00:19:40.319Z,17.04
2018-05-26T00:22:07.799Z,17.03
2018-05-26T00:24:35.371Z,16.99
2018-05-26T00:27:02.875Z,16.99
2018-05-26T00:29:30.364Z,16.97
2018-05-26T00:31:57.812Z,16.94
2018-05-26T00:34:25.300Z,16.89
2018-05-26T00:36:52.783Z,16.85
2018-05-26T00:39:20.267Z,16.79
2018-05-26T00:41:47.745Z,16.78
2018-05-26T00:44:15.233Z,16.73
2018-05-26T00:46:42.711Z,16.71
2018-05-26T00:49:10.211Z,16.66
2018-05-26T00:51:37.691Z,16.61
2018-05-26T00:54:05.183Z,16.59
2018-05-26T00:56:32.620Z,16.54
2018-05-26T00:59:00.136Z,16.48
2018-05-26T01:01:27.623Z,16.44
2018-05-26T01:03:55.066Z,16.38
2018-05-26T01:06:22.529Z,16.34
2018-05-26T01:08:49.997Z,16.34
2018-05-26T01:11:17.617Z,16.30
2018-05-26T01:13:45.058Z,16.24
2018-05-26T01:16:12.525Z,16.21
2018-05-26T01:18:39.985Z,16.19
2018-05-26T01:21:07.440Z,16.15
2018-05-26T01:23:34.904Z,16.15
2018-05-26T01:26:02.416Z,16.13
2018-05-26T01:28:29.963Z,16.09
2018-05-26T01:30:57.421Z,16.10
2018-05-26T01:33:24.905Z,16.11
2018-05-26T01:35:52.373Z,16.08
2018-05-26T01:38:19.889Z,16.05
2018-05-26T01:40:47.326Z,16.00
2018-05-26T01:43:14.793Z,16.01
2018-05-26T01:45:42.406Z,16.00
2018-05-26T01:48:09.877Z,15.96
2018-05-26T01:50:37.354Z,15.95
2018-05-26T01:53:04.874Z,15.95
2018-05-26T01:55:32.326Z,15.94
2018-05-26T01:57:59.876Z,15.93
2018-05-26T02:00:27.348Z,15.90
2018-05-26T02:02:54.820Z,15.88
2018-05-26T02:05:22.320Z,15.84
2018-05-26T02:07:49.778Z,15.77
2018-05-26T02:10:17.235Z,15.76
2018-05-26T02:12:44.693Z,15.72
2018-05-26T02:15:12.176Z,15.73
2018-05-26T02:17:39.753Z,15.70
2018-05-26T02:20:07.218Z,15.66
2018-05-26T02:22:34.681Z,15.62
2018-05-26T02:25:02.182Z,15.61
2018-05-26T02:27:29.631Z,15.57
2018-05-26T02:29:57.135Z,15.57
2018-05-26T02:32:24.592Z,15.49
2018-05-26T02:34:52.118Z,15.44
2018-05-26T02:37:19.568Z,15.44
2018-05-26T02:39:47.038Z,15.42
2018-05-26T02:42:14.486Z,15.35
2018-05-26T02:44:41.966Z,15.34
2018-05-26T02:47:09.442Z,15.32
2018-05-26T02:49:36.911Z,15.28
2018-05-26T02:52:04.407Z,15.25
2018-05-26T02:54:32.598Z,15.23
2018-05-26T02:57:00.060Z,15.17
2018-05-26T02:59:27.525Z,15.16
2018-05-26T03:01:54.992Z,15.18
2018-05-26T04:02:50.487Z,15.16
2018-05-26T04:11:01.847Z,15.31
2018-05-26T04:13:29.302Z,15.38
2018-05-26T04:15:56.817Z,15.44
2018-05-26T04:18:24.329Z,15.55
2018-05-26T04:20:51.825Z,15.61
2018-05-26T04:23:19.403Z,15.68
2018-05-26T04:25:46.886Z,15.76
2018-05-26T04:31:05.075Z,15.93
2018-05-26T04:33:32.552Z,15.99
2018-05-26T04:36:00.141Z,16.10
2018-05-26T04:38:27.667Z,16.14
2018-05-26T04:40:55.168Z,16.24
2018-05-26T04:43:22.667Z,16.32
2018-05-26T04:45:50.134Z,16.39
2018-05-26T04:48:17.640Z,16.51
2018-05-26T04:50:45.113Z,16.60
2018-05-26T04:53:12.586Z,16.68
2018-05-26T04:55:40.072Z,16.75
2018-05-26T04:58:07.541Z,16.89
2018-05-26T05:00:35.037Z,16.97
2018-05-26T05:03:02.539Z,17.09
2018-05-26T05:05:30.006Z,17.19
2018-05-26T05:07:57.483Z,17.25
2018-05-26T05:10:24.985Z,17.42
2018-05-26T05:12:52.447Z,17.57
2018-05-26T05:15:19.915Z,17.70
2018-05-26T05:17:47.381Z,17.77
2018-05-26T05:25:56.282Z,18.06
2018-05-26T05:28:23.751Z,18.18
2018-05-26T05:30:51.209Z,18.24
2018-05-26T05:33:18.671Z,18.39
2018-05-26T05:35:46.127Z,18.52
2018-05-26T05:38:13.646Z,18.62
2018-05-26T05:40:41.299Z,18.73
2018-05-26T05:43:08.793Z,18.85
2018-05-26T05:45:37.157Z,18.93
2018-05-26T05:48:04.620Z,19.01
2018-05-26T05:50:32.120Z,19.08
2018-05-26T05:52:59.656Z,19.15
2018-05-26T05:55:27.125Z,19.12
2018-05-26T05:57:54.628Z,19.15
2018-05-26T06:00:22.118Z,19.16
2018-05-26T06:05:40.012Z,19.34
2018-05-26T06:08:07.501Z,19.42
2018-05-26T06:10:34.979Z,19.51
2018-05-26T06:13:02.451Z,19.65
2018-05-26T06:15:30.010Z,19.69
2018-05-26T06:17:57.484Z,19.85
2018-05-26T06:20:24.971Z,19.93
2018-05-26T06:22:52.451Z,20.00
2018-05-26T06:25:20.002Z,20.11
2018-05-26T06:27:47.484Z,20.13
2018-05-26T06:30:14.941Z,20.14
2018-05-26T06:32:42.529Z,20.21
2018-05-26T06:35:10.044Z,20.33
2018-05-26T06:37:37.558Z,20.36
2018-05-26T06:40:05.081Z,20.39
2018-05-26T06:42:32.558Z,20.37
2018-05-26T06:45:00.013Z,20.35
2018-05-26T06:50:17.840Z,20.28
2018-05-26T06:52:45.384Z,20.32
2018-05-26T06:55:12.843Z,20.31
2018-05-26T06:57:40.395Z,20.34
2018-05-26T07:00:07.874Z,20.38
2018-05-26T07:02:35.362Z,20.54
2018-05-26T07:05:02.855Z,20.59
2018-05-26T07:07:30.316Z,20.76
2018-05-26T07:09:57.787Z,20.93
2018-05-26T07:12:25.249Z,21.16
2018-05-26T07:14:52.695Z,21.41
2018-05-26T07:17:20.164Z,21.54
2018-05-26T07:19:47.716Z,21.75
2018-05-26T07:22:15.164Z,21.93
2018-05-26T07:24:42.870Z,22.16
2018-05-26T07:27:10.314Z,22.31
2018-05-26T07:29:37.767Z,22.29
2018-05-26T07:32:05.245Z,22.45
2018-05-26T07:34:32.717Z,22.65
2018-05-26T07:37:00.217Z,22.68
2018-05-26T07:39:27.723Z,22.76
2018-05-26T07:41:55.192Z,23.02
2018-05-26T07:44:22.689Z,23.12
2018-05-26T07:46:50.144Z,23.29
2018-05-26T07:49:17.610Z,23.48
2018-05-26T07:51:45.052Z,23.67
2018-05-26T07:54:12.510Z,23.58
2018-05-26T07:56:39.974Z,23.71
2018-05-26T07:59:07.450Z,23.89
2018-05-26T08:01:34.921Z,24.14
2018-05-26T08:04:02.389Z,24.30
2018-05-26T08:06:29.839Z,24.47
2018-05-26T08:08:57.374Z,24.47
2018-05-26T08:11:24.861Z,24.64
2018-05-26T08:13:52.308Z,24.76
2018-05-26T08:16:19.777Z,25.02
2018-05-26T08:18:47.248Z,25.32
2018-05-26T08:21:14.727Z,25.34
2018-05-26T08:23:42.212Z,25.53
2018-05-26T08:26:09.675Z,25.51
2018-05-26T08:28:37.157Z,25.54
2018-05-26T08:31:04.712Z,25.46
2018-05-26T08:33:32.167Z,25.27
2018-05-26T08:35:59.622Z,25.07
2018-05-26T08:38:27.100Z,24.84
2018-05-26T08:40:54.751Z,24.84
2018-05-26T08:43:22.268Z,24.88
2018-05-26T08:45:49.728Z,24.94
2018-05-26T08:48:17.206Z,25.22
2018-05-26T08:50:44.720Z,25.21
2018-05-26T08:53:12.185Z,25.28
2018-05-26T08:55:39.671Z,25.60
2018-05-26T08:58:07.127Z,25.75
2018-05-26T09:00:34.601Z,25.87
2018-05-26T09:03:02.053Z,25.97
2018-05-26T09:05:29.658Z,26.17
2018-05-26T09:07:57.137Z,26.13
2018-05-26T09:10:24.581Z,26.28
2018-05-26T09:12:52.067Z,26.37
2018-05-26T09:15:19.548Z,26.37
2018-05-26T09:17:47.036Z,26.39
2018-05-26T09:20:14.545Z,26.68
2018-05-26T09:22:42.047Z,26.87
2018-05-26T09:25:09.655Z,26.92
2018-05-26T09:27:37.060Z,27.08
2018-05-26T09:30:04.507Z,27.02
2018-05-26T09:32:31.985Z,27.18
2018-05-26T09:34:59.597Z,27.37
2018-05-26T09:37:27.105Z,27.42
2018-05-26T09:39:54.571Z,27.49
2018-05-26T09:42:22.050Z,27.68
2018-05-26T09:44:49.530Z,27.56
2018-05-26T09:47:16.992Z,27.75
2018-05-26T09:49:44.553Z,27.94
2018-05-26T09:52:12.016Z,28.03
2018-05-26T09:54:39.523Z,28.05
2018-05-26T09:57:06.969Z,28.01
2018-05-26T09:59:34.419Z,28.21
2018-05-26T10:02:01.918Z,28.27
2018-05-26T10:04:29.536Z,28.47
2018-05-26T10:06:57.869Z,28.53
2018-05-26T10:09:25.429Z,28.49
2018-05-26T10:11:52.902Z,28.39
2018-05-26T10:14:20.375Z,28.51
2018-05-26T10:16:47.900Z,28.75
2018-05-26T10:19:15.566Z,28.91
2018-05-26T10:21:43.125Z,29.00
2018-05-26T10:24:10.916Z,28.96
2018-05-26T10:26:38.380Z,29.15
2018-05-26T10:29:05.925Z,29.21
2018-05-26T10:31:33.399Z,29.20
2018-05-26T10:34:01.013Z,29.02
2018-05-26T10:36:28.609Z,29.13
2018-05-26T10:38:56.060Z,29.15
2018-05-26T10:41:23.516Z,29.22
2018-05-26T10:43:50.992Z,29.28
2018-05-26T10:46:25.407Z,29.46
2018-05-26T10:48:52.883Z,29.54
2018-05-26T10:51:20.378Z,29.59
2018-05-26T10:53:47.829Z,29.61
2018-05-26T10:56:15.329Z,29.74
2018-05-26T10:58:42.775Z,29.84
2018-05-26T11:01:10.374Z,29.70
2018-05-26T11:03:37.849Z,29.99
2018-05-26T11:06:05.300Z,30.12
2018-05-26T11:08:32.807Z,30.09
2018-05-26T11:11:00.283Z,30.18
2018-05-26T11:13:27.797Z,30.25
2018-05-26T11:15:55.236Z,30.42
2018-05-26T11:18:22.740Z,30.57
2018-05-26T11:20:50.211Z,30.58
2018-05-26T11:23:17.778Z,30.66
2018-05-26T11:25:45.219Z,30.72
2018-05-26T11:28:12.692Z,30.82
2018-05-26T11:30:40.198Z,31.01
2018-05-26T11:33:07.685Z,31.15
2018-05-26T11:35:35.143Z,31.15
2018-05-26T11:38:02.616Z,31.22
2018-05-26T11:40:30.105Z,31.17
2018-05-26T11:42:57.580Z,31.34
2018-05-26T11:45:25.060Z,31.44
2018-05-26T11:47:52.621Z,31.45
2018-05-26T11:50:20.115Z,31.67
2018-05-26T11:52:47.551Z,31.95
2018-05-26T11:55:15.029Z,32.11
2018-05-26T11:57:42.472Z,32.07
2018-05-26T12:00:09.962Z,32.73
2018-05-26T12:02:37.427Z,33.51
2018-05-26T12:05:04.913Z,34.35
2018-05-26T12:07:32.416Z,34.98
2018-05-26T12:10:00.243Z,35.83
2018-05-26T12:12:27.786Z,36.49
2018-05-26T12:14:55.312Z,37.89
2018-05-26T12:17:22.790Z,39.43
2018-05-26T12:19:50.312Z,40.86
2018-05-26T12:22:17.759Z,41.80
2018-05-26T12:24:45.216Z,42.62
2018-05-26T12:27:12.707Z,43.64
2018-05-26T12:29:40.148Z,44.61
2018-05-26T12:32:07.617Z,45.12
2018-05-26T12:34:36.246Z,44.59
2018-05-26T12:37:03.983Z,44.87
2018-05-26T12:39:31.445Z,45.57
2018-05-26T12:41:58.916Z,46.17
2018-05-26T12:44:26.360Z,46.64
2018-05-26T12:46:53.801Z,46.64
2018-05-26T12:49:21.257Z,46.46
2018-05-26T12:51:48.710Z,45.93
2018-05-26T12:54:16.193Z,46.85
2018-05-26T12:56:43.660Z,46.81
2018-05-26T12:59:11.109Z,46.03
2018-05-26T13:01:38.560Z,45.57
2018-05-26T13:04:06.044Z,46.42
2018-05-26T13:06:33.504Z,47.15
2018-05-26T13:09:01.003Z,46.02
2018-05-26T13:11:28.576Z,46.76
2018-05-26T13:13:56.186Z,47.87
2018-05-26T13:16:23.650Z,48.30
2018-05-26T13:18:51.121Z,48.50
2018-05-26T13:21:18.661Z,48.24
2018-05-26T13:23:46.145Z,47.99
2018-05-26T13:26:13.672Z,48.09
2018-05-26T13:28:41.249Z,48.57
2018-05-26T13:31:08.735Z,48.31
2018-05-26T13:33:36.365Z,49.03
2018-05-26T13:36:03.917Z,49.01
2018-05-26T13:38:31.455Z,49.28
2018-05-26T13:40:58.917Z,49.79
2018-05-26T13:43:26.415Z,50.27
2018-05-26T13:45:53.939Z,50.03
2018-05-26T13:48:21.447Z,49.20
2018-05-26T13:50:49.014Z,50.04
2018-05-26T13:53:16.534Z,47.76
2018-05-26T13:55:43.945Z,47.95
2018-05-26T13:58:11.435Z,47.30
2018-05-26T14:00:38.978Z,47.54
2018-05-26T14:03:06.445Z,48.02
2018-05-26T14:05:33.922Z,48.49
2018-05-26T14:08:01.383Z,49.32
2018-05-26T14:10:28.916Z,48.68
2018-05-26T14:12:56.358Z,49.30
2018-05-26T14:15:23.816Z,49.30
2018-05-26T14:17:51.279Z,49.55
2018-05-26T14:20:18.775Z,48.98
2018-05-26T14:22:46.254Z,49.81
2018-05-26T14:25:13.732Z,49.97
2018-05-26T14:27:41.207Z,50.13
2018-05-26T14:30:08.674Z,49.33
2018-05-26T14:32:36.201Z,50.03
2018-05-26T14:35:03.646Z,50.98
2018-05-26T14:37:31.111Z,50.55
2018-05-26T14:39:58.601Z,50.57
2018-05-26T14:42:26.055Z,50.64
2018-05-26T14:44:53.504Z,51.42
2018-05-26T14:47:20.954Z,49.23
2018-05-26T14:49:48.496Z,50.42
2018-05-26T14:52:15.950Z,51.08
2018-05-26T14:54:43.455Z,50.55
2018-05-26T14:57:10.935Z,49.32
2018-05-26T14:59:38.417Z,50.01
2018-05-26T15:02:05.886Z,50.11
2018-05-26T15:04:33.331Z,50.74
2018-05-26T15:07:00.806Z,49.95
2018-05-26T15:09:28.260Z,49.64
2018-05-26T15:11:55.706Z,49.59
2018-05-26T15:14:23.170Z,49.16
2018-05-26T15:16:50.633Z,49.40
2018-05-26T15:19:18.147Z,49.59
2018-05-26T15:21:45.618Z,49.25
2018-05-26T15:24:13.143Z,48.55
2018-05-26T15:26:41.431Z,47.50
2018-05-26T15:29:08.935Z,46.08
2018-05-26T15:31:36.384Z,45.61
2018-05-26T15:34:03.856Z,45.24
2018-05-26T15:36:31.335Z,44.14
2018-05-26T15:38:58.796Z,43.39
2018-05-26T15:41:26.285Z,42.71
2018-05-26T15:43:53.752Z,42.17
2018-05-26T15:46:21.210Z,41.66
2018-05-26T15:48:48.698Z,41.16
2018-05-26T15:51:16.167Z,40.69
2018-05-26T15:53:43.617Z,40.29
2018-05-26T15:56:11.095Z,40.46
2018-05-26T15:58:38.567Z,40.80
2018-05-26T16:01:06.016Z,40.89
2018-05-26T16:03:33.461Z,40.37
2018-05-26T16:06:01.040Z,39.73
2018-05-26T16:08:28.503Z,38.25
2018-05-26T16:10:55.985Z,37.12
2018-05-26T16:13:23.445Z,36.60
2018-05-26T16:15:50.946Z,36.16
2018-05-26T16:18:18.447Z,35.87
2018-05-26T16:20:45.988Z,35.50
2018-05-26T16:23:13.435Z,35.33
2018-05-26T16:25:40.923Z,35.12
2018-05-26T16:28:08.394Z,34.75
2018-05-26T16:30:35.984Z,34.44
2018-05-26T16:33:03.478Z,34.19
2018-05-26T16:35:30.940Z,34.05
2018-05-26T16:37:58.494Z,33.93
2018-05-26T16:40:25.957Z,33.76
2018-05-26T16:42:53.544Z,33.68
2018-05-26T16:45:21.050Z,33.70
2018-05-26T16:47:48.520Z,33.55
2018-05-26T16:50:15.983Z,33.48
2018-05-26T16:52:43.459Z,33.44
2018-05-26T16:55:10.987Z,33.37
2018-05-26T16:57:38.460Z,33.27
2018-05-26T17:00:05.911Z,33.01
2018-05-26T17:02:33.395Z,32.96
2018-05-26T17:05:00.866Z,32.76
2018-05-26T17:07:28.713Z,32.69
2018-05-26T17:09:56.170Z,32.76
2018-05-26T17:12:23.634Z,32.65
2018-05-26T17:14:51.093Z,32.66
2018-05-26T17:17:18.557Z,32.30
2018-05-26T17:19:46.026Z,32.38
2018-05-26T17:22:13.475Z,32.27
2018-05-26T17:24:40.940Z,32.37
2018-05-26T17:27:08.420Z,32.17
2018-05-26T17:29:35.878Z,32.37
2018-05-26T17:32:03.333Z,32.44
2018-05-26T17:34:30.818Z,32.50
2018-05-26T17:36:58.283Z,32.33
2018-05-26T17:39:25.768Z,32.22
2018-05-26T17:41:54.066Z,32.27
2018-05-26T17:44:21.592Z,32.11
2018-05-26T17:46:49.103Z,31.84
2018-05-26T17:49:16.592Z,31.85
2018-05-26T17:51:44.064Z,31.61
2018-05-26T17:54:11.548Z,31.15
2018-05-26T17:56:40.015Z,30.85
2018-05-26T17:59:07.528Z,30.64
2018-05-26T18:01:35.008Z,30.24
2018-05-26T18:04:02.468Z,29.92
2018-05-26T18:06:30.085Z,29.60
2018-05-26T18:08:57.582Z,29.36
2018-05-26T18:11:25.050Z,29.23
2018-05-26T18:13:52.608Z,29.02
2018-05-26T18:16:20.116Z,28.84
2018-05-26T18:18:47.563Z,28.76
2018-05-26T18:21:15.019Z,28.67
2018-05-26T18:23:42.470Z,28.49
2018-05-26T18:26:10.011Z,28.47
2018-05-26T18:28:37.510Z,28.34
2018-05-26T18:31:04.996Z,28.21
2018-05-26T18:33:32.492Z,28.04
2018-05-26T18:35:59.943Z,27.83
2018-05-26T18:38:27.780Z,27.61
2018-05-26T18:40:55.242Z,27.51
2018-05-26T18:43:22.703Z,27.35
2018-05-26T18:45:50.197Z,27.10
2018-05-26T18:48:17.644Z,26.96
2018-05-26T18:50:45.118Z,26.82
2018-05-26T18:53:12.585Z,26.51
2018-05-26T18:55:40.096Z,26.39
2018-05-26T18:58:07.554Z,26.14
2018-05-26T19:00:35.042Z,25.96
2018-05-26T19:03:02.532Z,25.75
2018-05-26T19:05:29.999Z,25.53
2018-05-26T19:07:57.490Z,25.33
2018-05-26T19:10:25.042Z,25.16
2018-05-26T19:12:52.505Z,24.97
2018-05-26T19:15:20.082Z,24.83
2018-05-26T19:17:47.590Z,24.69
2018-05-26T19:20:15.080Z,24.55
2018-05-26T19:22:42.615Z,24.46
2018-05-26T19:25:10.098Z,24.30
2018-05-26T19:27:37.698Z,24.15
2018-05-26T19:30:05.161Z,24.05
2018-05-26T19:32:32.616Z,23.93
2018-05-26T19:35:00.139Z,23.82
2018-05-26T19:37:27.649Z,23.68
2018-05-26T19:39:55.151Z,23.59
2018-05-26T19:42:22.730Z,23.55
2018-05-26T19:44:50.455Z,23.51
2018-05-26T19:47:17.896Z,23.44
2018-05-26T19:52:36.061Z,23.32
2018-05-26T20:03:37.891Z,23.12
2018-05-26T20:06:05.420Z,23.04
2018-05-26T20:08:32.923Z,22.97
2018-05-26T20:11:00.389Z,22.91
2018-05-26T20:13:27.953Z,22.84
2018-05-26T20:15:55.419Z,22.76
2018-05-26T20:18:22.894Z,22.65
2018-05-26T20:20:50.369Z,22.59
2018-05-26T20:23:17.858Z,22.50
2018-05-26T20:25:45.408Z,22.44
2018-05-26T20:28:12.911Z,22.39
2018-05-26T20:30:41.307Z,22.34
2018-05-26T20:33:08.813Z,22.27
2018-05-26T20:35:36.382Z,22.20
2018-05-26T20:38:06.852Z,22.14
2018-05-26T20:40:34.453Z,22.06
2018-05-26T20:43:02.202Z,21.97
2018-05-26T20:45:29.685Z,21.91
2018-05-26T20:47:57.293Z,21.85
2018-05-26T20:50:24.761Z,21.79
2018-05-26T20:52:52.252Z,21.74
2018-05-26T20:55:19.731Z,21.64
2018-05-26T20:57:47.195Z,21.56
2018-05-26T21:00:17.210Z,21.50
2018-05-26T21:02:44.672Z,21.40
2018-05-26T21:05:12.418Z,21.32
2018-05-26T21:07:40.082Z,21.23
2018-05-26T21:10:07.591Z,21.14
2018-05-26T21:12:35.067Z,21.06
2018-05-26T21:15:02.607Z,20.96
2018-05-26T21:17:30.081Z,20.88
2018-05-26T21:19:57.558Z,20.80
2018-05-26T21:22:25.034Z,20.79
2018-05-26T21:27:42.986Z,20.75
2018-05-26T21:30:10.545Z,20.72
2018-05-26T21:32:38.114Z,20.67
2018-05-26T21:35:06.601Z,20.63
2018-05-26T21:37:34.092Z,20.56
2018-05-26T21:40:01.593Z,20.49
2018-05-26T21:42:29.171Z,20.43
2018-05-26T21:44:56.643Z,20.32
2018-05-26T21:47:24.091Z,20.26
2018-05-26T21:49:51.577Z,20.23
2018-05-26T21:52:19.038Z,20.18
2018-05-26T21:54:46.524Z,20.12
2018-05-26T21:57:13.986Z,20.10
2018-05-26T21:59:41.446Z,20.07
2018-05-26T22:02:09.244Z,20.06
2018-05-26T22:04:36.788Z,20.10
2018-05-26T22:07:06.356Z,20.09
2018-05-26T22:09:34.784Z,20.07
2018-05-26T22:12:03.098Z,19.95
2018-05-26T22:14:32.495Z,19.91
2018-05-26T22:17:01.141Z,19.83
2018-05-26T22:19:30.091Z,19.77
2018-05-26T22:21:58.722Z,19.73
2018-05-26T22:24:27.323Z,19.69
2018-05-26T22:26:55.278Z,19.63
2018-05-26T22:29:23.548Z,19.59
2018-05-26T22:31:52.400Z,19.59
2018-05-26T22:34:19.876Z,19.60
2018-05-26T22:36:48.142Z,19.54
2018-05-26T22:39:15.705Z,19.47
2018-05-26T22:41:43.580Z,19.43
2018-05-26T22:44:11.154Z,19.30
2018-05-26T22:46:39.061Z,19.31
2018-05-26T22:49:08.160Z,19.29
2018-05-26T22:51:35.840Z,19.23
2018-05-26T22:54:03.325Z,19.21
2018-05-26T22:56:31.034Z,19.14
2018-05-26T22:58:58.561Z,19.11
2018-05-26T23:01:26.472Z,19.04
2018-05-26T23:03:54.876Z,19.03
2018-05-26T23:06:22.503Z,19.01
2018-05-26T23:08:49.985Z,18.96
2018-05-26T23:11:17.458Z,18.97
2018-05-26T23:13:45.023Z,18.94
2018-05-26T23:16:12.566Z,18.92
2018-05-26T23:18:40.186Z,18.89
2018-05-26T23:21:07.777Z,18.88
2018-05-26T23:23:36.373Z,18.85
2018-05-26T23:26:06.074Z,18.83
2018-05-26T23:28:34.336Z,18.88
2018-05-26T23:31:04.318Z,18.87
2018-05-26T23:33:33.451Z,18.85
2018-05-26T23:36:01.414Z,18.83
2018-05-26T23:38:31.130Z,18.78
2018-05-26T23:40:59.384Z,18.73
2018-05-26T23:43:28.010Z,18.67
2018-05-26T23:45:57.309Z,18.63
2018-05-26T23:48:25.598Z,18.60
2018-05-26T23:50:53.220Z,18.54
2018-05-26T23:53:22.024Z,18.48
2018-05-26T23:55:49.982Z,18.43
2018-05-26T23:58:17.729Z,18.39
